sensor_id;sensor_type;location;lat;lon;timestamp;P1;durP1;ratioP1;P2;durP2;ratioP2
14474;SDS011;7323;50.848;4.334;2023-03-23T00:01:09;7.50;;;4.90;;
14474;SDS011;7323;50.848;4.334;2023-03-23T00:03:38;7.93;;;5.97;;
14474;SDS011;7323;50.848;4.334;2023-03-23T00:06:04;8.77;;;6.37;;
14474;SDS011;7323;50.848;4.334;2023-03-23T00:08:35;7.83;;;5.87;;
14474;SDS011;7323;50.848;4.334;2023-03-23T00:11:13;9.00;;;5.20;;
14474;SDS011;7323;50.848;4.334;2023-03-23T00:13:58;8.23;;;5.10;;
14474;SDS011;7323;50.848;4.334;2023-03-23T00:16:26;8.53;;;4.90;;
14474;SDS011;7323;50.848;4.334;2023-03-23T00:18:55;7.03;;;4.47;;
14474;SDS011;7323;50.848;4.334;2023-03-23T00:21:23;6.53;;;4.20;;
14474;SDS011;7323;50.848;4.334;2023-03-23T00:24:05;6.33;;;4.43;;
14474;SDS011;7323;50.848;4.334;2023-03-23T00:26:34;5.50;;;3.83;;
14474;SDS011;7323;50.848;4.334;2023-03-23T00:29:05;5.87;;;4.17;;
14474;SDS011;7323;50.848;4.334;2023-03-23T00:31:44;6.50;;;4.20;;
14474;SDS011;7323;50.848;4.334;2023-03-23T00:34:17;5.07;;;4.10;;
14474;SDS011;7323;50.848;4.334;2023-03-23T00:36:49;5.17;;;4.03;;
14474;SDS011;7323;50.848;4.334;2023-03-23T00:39:18;5.30;;;4.00;;
14474;SDS011;7323;50.848;4.334;2023-03-23T00:41:45;5.20;;;4.17;;
14474;SDS011;7323;50.848;4.334;2023-03-23T00:44:12;4.90;;;3.97;;
14474;SDS011;7323;50.848;4.334;2023-03-23T00:46:45;5.50;;;4.30;;
14474;SDS011;7323;50.848;4.334;2023-03-23T00:49:14;5.20;;;3.87;;
14474;SDS011;7323;50.848;4.334;2023-03-23T00:51:44;5.20;;;3.67;;
14474;SDS011;7323;50.848;4.334;2023-03-23T00:54:13;5.03;;;4.00;;
14474;SDS011;7323;50.848;4.334;2023-03-23T00:56:38;6.40;;;4.40;;
14474;SDS011;7323;50.848;4.334;2023-03-23T00:59:04;5.10;;;4.30;;
14474;SDS011;7323;50.848;4.334;2023-03-23T01:01:30;5.17;;;3.87;;
14474;SDS011;7323;50.848;4.334;2023-03-23T01:03:57;4.57;;;4.03;;
14474;SDS011;7323;50.848;4.334;2023-03-23T01:06:26;5.67;;;4.23;;
14474;SDS011;7323;50.848;4.334;2023-03-23T01:08:53;6.17;;;4.43;;
14474;SDS011;7323;50.848;4.334;2023-03-23T01:11:19;5.57;;;4.00;;
14474;SDS011;7323;50.848;4.334;2023-03-23T01:16:14;5.53;;;4.20;;
14474;SDS011;7323;50.848;4.334;2023-03-23T01:18:42;6.40;;;4.77;;
14474;SDS011;7323;50.848;4.334;2023-03-23T01:23:39;5.93;;;4.17;;
14474;SDS011;7323;50.848;4.334;2023-03-23T01:26:11;5.27;;;3.93;;
14474;SDS011;7323;50.848;4.334;2023-03-23T01:28:39;5.63;;;4.30;;
14474;SDS011;7323;50.848;4.334;2023-03-23T01:31:06;5.33;;;4.30;;
14474;SDS011;7323;50.848;4.334;2023-03-23T01:33:33;4.80;;;3.90;;
14474;SDS011;7323;50.848;4.334;2023-03-23T01:36:03;5.63;;;3.87;;
14474;SDS011;7323;50.848;4.334;2023-03-23T01:38:32;5.63;;;4.07;;
14474;SDS011;7323;50.848;4.334;2023-03-23T01:40:59;5.90;;;4.60;;
14474;SDS011;7323;50.848;4.334;2023-03-23T01:43:25;5.63;;;4.10;;
14474;SDS011;7323;50.848;4.334;2023-03-23T01:45:51;5.23;;;3.90;;
14474;SDS011;7323;50.848;4.334;2023-03-23T01:48:18;6.10;;;4.13;;
14474;SDS011;7323;50.848;4.334;2023-03-23T01:53:16;4.97;;;3.73;;
14474;SDS011;7323;50.848;4.334;2023-03-23T01:55:43;6.90;;;3.80;;
14474;SDS011;7323;50.848;4.334;2023-03-23T01:58:13;5.23;;;3.57;;
14474;SDS011;7323;50.848;4.334;2023-03-23T02:00:40;4.43;;;3.47;;
14474;SDS011;7323;50.848;4.334;2023-03-23T02:03:07;5.57;;;3.97;;
14474;SDS011;7323;50.848;4.334;2023-03-23T02:05:36;5.33;;;3.50;;
14474;SDS011;7323;50.848;4.334;2023-03-23T02:08:05;4.00;;;3.00;;
14474;SDS011;7323;50.848;4.334;2023-03-23T02:10:33;9.17;;;3.30;;
14474;SDS011;7323;50.848;4.334;2023-03-23T02:13:02;5.83;;;3.23;;
14474;SDS011;7323;50.848;4.334;2023-03-23T02:15:47;4.33;;;2.73;;
14474;SDS011;7323;50.848;4.334;2023-03-23T02:20:53;4.03;;;2.30;;
14474;SDS011;7323;50.848;4.334;2023-03-23T02:29:07;4.53;;;2.50;;
14474;SDS011;7323;50.848;4.334;2023-03-23T02:34:52;4.67;;;2.10;;
14474;SDS011;7323;50.848;4.334;2023-03-23T02:37:42;4.50;;;2.00;;
14474;SDS011;7323;50.848;4.334;2023-03-23T02:40:21;6.27;;;2.30;;
14474;SDS011;7323;50.848;4.334;2023-03-23T02:42:52;4.30;;;1.80;;
14474;SDS011;7323;50.848;4.334;2023-03-23T02:45:20;3.90;;;1.77;;
14474;SDS011;7323;50.848;4.334;2023-03-23T02:47:49;4.87;;;1.87;;
14474;SDS011;7323;50.848;4.334;2023-03-23T02:50:17;4.83;;;1.83;;
14474;SDS011;7323;50.848;4.334;2023-03-23T02:52:46;3.73;;;1.77;;
14474;SDS011;7323;50.848;4.334;2023-03-23T02:55:15;3.70;;;1.67;;
14474;SDS011;7323;50.848;4.334;2023-03-23T02:57:43;7.03;;;1.77;;
14474;SDS011;7323;50.848;4.334;2023-03-23T03:00:16;3.70;;;1.63;;
14474;SDS011;7323;50.848;4.334;2023-03-23T03:02:44;4.70;;;1.77;;
14474;SDS011;7323;50.848;4.334;2023-03-23T03:10:31;2.90;;;1.43;;
14474;SDS011;7323;50.848;4.334;2023-03-23T03:18:26;4.20;;;1.30;;
14474;SDS011;7323;50.848;4.334;2023-03-23T03:20:53;4.00;;;1.43;;
14474;SDS011;7323;50.848;4.334;2023-03-23T03:23:24;2.40;;;1.23;;
14474;SDS011;7323;50.848;4.334;2023-03-23T03:25:52;2.73;;;1.27;;
14474;SDS011;7323;50.848;4.334;2023-03-23T03:28:22;3.00;;;1.30;;
14474;SDS011;7323;50.848;4.334;2023-03-23T03:30:53;2.77;;;1.30;;
14474;SDS011;7323;50.848;4.334;2023-03-23T03:33:21;2.70;;;1.30;;
14474;SDS011;7323;50.848;4.334;2023-03-23T03:35:50;3.93;;;1.30;;
14474;SDS011;7323;50.848;4.334;2023-03-23T03:38:20;4.77;;;1.80;;
14474;SDS011;7323;50.848;4.334;2023-03-23T03:40:46;5.73;;;1.70;;
14474;SDS011;7323;50.848;4.334;2023-03-23T03:43:12;5.60;;;1.80;;
14474;SDS011;7323;50.848;4.334;2023-03-23T03:45:38;4.27;;;1.50;;
14474;SDS011;7323;50.848;4.334;2023-03-23T03:48:03;5.83;;;2.23;;
14474;SDS011;7323;50.848;4.334;2023-03-23T03:50:29;6.37;;;1.83;;
14474;SDS011;7323;50.848;4.334;2023-03-23T03:52:55;3.30;;;1.37;;
14474;SDS011;7323;50.848;4.334;2023-03-23T03:55:22;3.13;;;1.40;;
14474;SDS011;7323;50.848;4.334;2023-03-23T03:57:48;3.13;;;1.43;;
14474;SDS011;7323;50.848;4.334;2023-03-23T04:00:14;8.07;;;1.97;;
14474;SDS011;7323;50.848;4.334;2023-03-23T04:02:41;5.17;;;1.70;;
14474;SDS011;7323;50.848;4.334;2023-03-23T04:05:08;4.37;;;1.50;;
14474;SDS011;7323;50.848;4.334;2023-03-23T04:07:35;4.77;;;1.47;;
14474;SDS011;7323;50.848;4.334;2023-03-23T04:10:04;6.27;;;1.80;;
14474;SDS011;7323;50.848;4.334;2023-03-23T04:12:31;5.03;;;1.53;;
14474;SDS011;7323;50.848;4.334;2023-03-23T04:14:58;5.93;;;1.90;;
14474;SDS011;7323;50.848;4.334;2023-03-23T04:17:23;7.70;;;2.13;;
14474;SDS011;7323;50.848;4.334;2023-03-23T04:19:51;6.87;;;1.90;;
14474;SDS011;7323;50.848;4.334;2023-03-23T04:22:17;4.57;;;1.50;;
14474;SDS011;7323;50.848;4.334;2023-03-23T04:24:43;5.80;;;1.77;;
14474;SDS011;7323;50.848;4.334;2023-03-23T04:27:09;6.83;;;1.47;;
14474;SDS011;7323;50.848;4.334;2023-03-23T04:29:34;3.80;;;1.60;;
14474;SDS011;7323;50.848;4.334;2023-03-23T04:32:00;8.43;;;1.80;;
14474;SDS011;7323;50.848;4.334;2023-03-23T04:34:27;4.73;;;1.83;;
14474;SDS011;7323;50.848;4.334;2023-03-23T04:36:52;4.70;;;1.77;;
14474;SDS011;7323;50.848;4.334;2023-03-23T04:39:19;6.27;;;1.80;;
14474;SDS011;7323;50.848;4.334;2023-03-23T04:41:46;6.03;;;2.00;;
14474;SDS011;7323;50.848;4.334;2023-03-23T04:44:12;5.20;;;1.83;;
14474;SDS011;7323;50.848;4.334;2023-03-23T04:46:43;4.77;;;1.93;;
14474;SDS011;7323;50.848;4.334;2023-03-23T04:49:12;5.20;;;1.97;;
14474;SDS011;7323;50.848;4.334;2023-03-23T04:51:39;6.17;;;1.57;;
14474;SDS011;7323;50.848;4.334;2023-03-23T04:54:04;7.07;;;2.00;;
14474;SDS011;7323;50.848;4.334;2023-03-23T04:56:30;5.27;;;1.37;;
14474;SDS011;7323;50.848;4.334;2023-03-23T04:59:00;5.50;;;1.70;;
14474;SDS011;7323;50.848;4.334;2023-03-23T05:01:25;10.23;;;2.23;;
14474;SDS011;7323;50.848;4.334;2023-03-23T05:03:52;5.00;;;1.50;;
14474;SDS011;7323;50.848;4.334;2023-03-23T05:06:18;4.57;;;1.47;;
14474;SDS011;7323;50.848;4.334;2023-03-23T05:08:44;5.00;;;1.67;;
14474;SDS011;7323;50.848;4.334;2023-03-23T05:11:10;4.97;;;1.27;;
14474;SDS011;7323;50.848;4.334;2023-03-23T05:13:40;5.77;;;1.87;;
14474;SDS011;7323;50.848;4.334;2023-03-23T05:16:05;5.53;;;1.43;;
14474;SDS011;7323;50.848;4.334;2023-03-23T05:18:32;6.00;;;1.53;;
14474;SDS011;7323;50.848;4.334;2023-03-23T05:20:59;5.83;;;1.83;;
14474;SDS011;7323;50.848;4.334;2023-03-23T05:23:25;5.43;;;2.10;;
14474;SDS011;7323;50.848;4.334;2023-03-23T05:25:55;6.40;;;1.80;;
14474;SDS011;7323;50.848;4.334;2023-03-23T05:28:24;5.37;;;1.77;;
14474;SDS011;7323;50.848;4.334;2023-03-23T05:30:53;5.07;;;1.90;;
14474;SDS011;7323;50.848;4.334;2023-03-23T05:33:20;7.10;;;1.87;;
14474;SDS011;7323;50.848;4.334;2023-03-23T05:38:53;3.80;;;1.70;;
14474;SDS011;7323;50.848;4.334;2023-03-23T05:41:19;5.17;;;2.03;;
14474;SDS011;7323;50.848;4.334;2023-03-23T05:43:44;5.97;;;2.07;;
14474;SDS011;7323;50.848;4.334;2023-03-23T05:46:10;5.00;;;1.73;;
14474;SDS011;7323;50.848;4.334;2023-03-23T05:48:36;6.23;;;1.70;;
14474;SDS011;7323;50.848;4.334;2023-03-23T05:51:02;6.47;;;1.93;;
14474;SDS011;7323;50.848;4.334;2023-03-23T05:53:27;6.20;;;1.93;;
14474;SDS011;7323;50.848;4.334;2023-03-23T05:56:04;6.07;;;2.13;;
14474;SDS011;7323;50.848;4.334;2023-03-23T05:58:31;8.47;;;2.20;;
14474;SDS011;7323;50.848;4.334;2023-03-23T06:00:57;4.50;;;1.47;;
14474;SDS011;7323;50.848;4.334;2023-03-23T06:03:25;8.63;;;2.57;;
14474;SDS011;7323;50.848;4.334;2023-03-23T06:05:52;6.90;;;2.03;;
14474;SDS011;7323;50.848;4.334;2023-03-23T06:08:17;6.03;;;1.83;;
14474;SDS011;7323;50.848;4.334;2023-03-23T06:10:43;7.97;;;1.87;;
14474;SDS011;7323;50.848;4.334;2023-03-23T06:13:09;5.37;;;2.00;;
14474;SDS011;7323;50.848;4.334;2023-03-23T06:15:35;7.37;;;2.00;;
14474;SDS011;7323;50.848;4.334;2023-03-23T06:18:04;7.17;;;2.10;;
14474;SDS011;7323;50.848;4.334;2023-03-23T06:20:31;4.80;;;1.47;;
14474;SDS011;7323;50.848;4.334;2023-03-23T06:23:04;6.80;;;2.10;;
14474;SDS011;7323;50.848;4.334;2023-03-23T06:27:59;5.40;;;2.13;;
14474;SDS011;7323;50.848;4.334;2023-03-23T06:30:25;5.90;;;1.97;;
14474;SDS011;7323;50.848;4.334;2023-03-23T06:32:52;6.47;;;2.37;;
14474;SDS011;7323;50.848;4.334;2023-03-23T06:35:18;4.83;;;1.83;;
14474;SDS011;7323;50.848;4.334;2023-03-23T06:37:45;5.17;;;2.20;;
14474;SDS011;7323;50.848;4.334;2023-03-23T06:40:11;7.53;;;1.93;;
14474;SDS011;7323;50.848;4.334;2023-03-23T06:42:37;4.63;;;1.80;;
14474;SDS011;7323;50.848;4.334;2023-03-23T06:45:03;5.80;;;2.10;;
14474;SDS011;7323;50.848;4.334;2023-03-23T06:47:33;6.87;;;1.90;;
14474;SDS011;7323;50.848;4.334;2023-03-23T06:49:59;7.27;;;2.03;;
14474;SDS011;7323;50.848;4.334;2023-03-23T06:52:25;6.77;;;1.77;;
14474;SDS011;7323;50.848;4.334;2023-03-23T06:54:51;4.80;;;1.90;;
14474;SDS011;7323;50.848;4.334;2023-03-23T06:57:18;7.60;;;2.07;;
14474;SDS011;7323;50.848;4.334;2023-03-23T06:59:45;6.27;;;2.13;;
14474;SDS011;7323;50.848;4.334;2023-03-23T07:02:11;7.80;;;2.37;;
14474;SDS011;7323;50.848;4.334;2023-03-23T07:04:40;5.47;;;1.40;;
14474;SDS011;7323;50.848;4.334;2023-03-23T07:07:09;2.40;;;1.00;;
14474;SDS011;7323;50.848;4.334;2023-03-23T07:09:39;4.00;;;1.50;;
14474;SDS011;7323;50.848;4.334;2023-03-23T07:12:05;3.13;;;1.00;;
14474;SDS011;7323;50.848;4.334;2023-03-23T07:14:30;3.13;;;0.90;;
14474;SDS011;7323;50.848;4.334;2023-03-23T07:16:56;2.27;;;0.97;;
14474;SDS011;7323;50.848;4.334;2023-03-23T07:19:22;5.37;;;1.40;;
14474;SDS011;7323;50.848;4.334;2023-03-23T07:21:47;2.67;;;1.13;;
14474;SDS011;7323;50.848;4.334;2023-03-23T07:24:14;2.50;;;0.93;;
14474;SDS011;7323;50.848;4.334;2023-03-23T07:26:40;4.20;;;1.20;;
14474;SDS011;7323;50.848;4.334;2023-03-23T07:29:07;1.70;;;1.10;;
14474;SDS011;7323;50.848;4.334;2023-03-23T07:31:36;3.67;;;1.43;;
14474;SDS011;7323;50.848;4.334;2023-03-23T07:34:03;3.27;;;1.20;;
14474;SDS011;7323;50.848;4.334;2023-03-23T07:36:29;3.73;;;1.40;;
14474;SDS011;7323;50.848;4.334;2023-03-23T07:38:55;3.13;;;1.30;;
14474;SDS011;7323;50.848;4.334;2023-03-23T07:41:22;2.57;;;1.37;;
14474;SDS011;7323;50.848;4.334;2023-03-23T07:43:48;5.23;;;1.57;;
14474;SDS011;7323;50.848;4.334;2023-03-23T07:46:13;5.20;;;2.03;;
14474;SDS011;7323;50.848;4.334;2023-03-23T07:48:39;5.90;;;1.70;;
14474;SDS011;7323;50.848;4.334;2023-03-23T07:51:12;5.07;;;1.90;;
14474;SDS011;7323;50.848;4.334;2023-03-23T07:53:38;7.13;;;2.60;;
14474;SDS011;7323;50.848;4.334;2023-03-23T07:56:03;5.70;;;2.00;;
14474;SDS011;7323;50.848;4.334;2023-03-23T07:58:29;8.67;;;2.50;;
14474;SDS011;7323;50.848;4.334;2023-03-23T08:00:56;6.47;;;1.87;;
14474;SDS011;7323;50.848;4.334;2023-03-23T08:03:22;7.77;;;1.80;;
14474;SDS011;7323;50.848;4.334;2023-03-23T08:05:48;3.90;;;1.80;;
14474;SDS011;7323;50.848;4.334;2023-03-23T08:08:15;6.20;;;1.50;;
14474;SDS011;7323;50.848;4.334;2023-03-23T08:10:43;5.03;;;1.53;;
14474;SDS011;7323;50.848;4.334;2023-03-23T08:13:09;4.40;;;1.93;;
14474;SDS011;7323;50.848;4.334;2023-03-23T08:15:35;3.13;;;1.10;;
14474;SDS011;7323;50.848;4.334;2023-03-23T08:18:03;2.27;;;1.00;;
14474;SDS011;7323;50.848;4.334;2023-03-23T08:20:29;2.90;;;1.20;;
14474;SDS011;7323;50.848;4.334;2023-03-23T08:22:55;3.77;;;1.27;;
14474;SDS011;7323;50.848;4.334;2023-03-23T08:25:22;2.60;;;1.17;;
14474;SDS011;7323;50.848;4.334;2023-03-23T08:27:49;4.40;;;1.33;;
14474;SDS011;7323;50.848;4.334;2023-03-23T08:30:17;2.67;;;1.20;;
14474;SDS011;7323;50.848;4.334;2023-03-23T08:32:47;3.40;;;1.10;;
14474;SDS011;7323;50.848;4.334;2023-03-23T08:35:14;2.23;;;1.07;;
14474;SDS011;7323;50.848;4.334;2023-03-23T08:37:41;4.50;;;1.30;;
14474;SDS011;7323;50.848;4.334;2023-03-23T08:40:13;3.90;;;1.43;;
14474;SDS011;7323;50.848;4.334;2023-03-23T08:42:40;2.97;;;0.97;;
14474;SDS011;7323;50.848;4.334;2023-03-23T08:45:09;4.30;;;1.40;;
14474;SDS011;7323;50.848;4.334;2023-03-23T08:47:37;4.33;;;1.40;;
14474;SDS011;7323;50.848;4.334;2023-03-23T08:50:04;2.83;;;1.57;;
14474;SDS011;7323;50.848;4.334;2023-03-23T08:52:31;2.73;;;1.60;;
14474;SDS011;7323;50.848;4.334;2023-03-23T08:54:57;4.60;;;1.77;;
14474;SDS011;7323;50.848;4.334;2023-03-23T08:57:23;6.13;;;1.80;;
14474;SDS011;7323;50.848;4.334;2023-03-23T08:59:50;3.97;;;1.63;;
14474;SDS011;7323;50.848;4.334;2023-03-23T09:02:19;5.43;;;1.53;;
14474;SDS011;7323;50.848;4.334;2023-03-23T09:04:45;3.77;;;1.50;;
14474;SDS011;7323;50.848;4.334;2023-03-23T09:07:14;3.77;;;1.63;;
14474;SDS011;7323;50.848;4.334;2023-03-23T09:09:40;4.87;;;1.50;;
14474;SDS011;7323;50.848;4.334;2023-03-23T09:12:07;3.87;;;1.70;;
14474;SDS011;7323;50.848;4.334;2023-03-23T09:14:34;3.80;;;1.47;;
14474;SDS011;7323;50.848;4.334;2023-03-23T09:17:01;5.67;;;1.27;;
14474;SDS011;7323;50.848;4.334;2023-03-23T09:19:28;4.67;;;1.70;;
14474;SDS011;7323;50.848;4.334;2023-03-23T09:21:55;6.70;;;1.80;;
14474;SDS011;7323;50.848;4.334;2023-03-23T09:24:21;4.83;;;1.97;;
14474;SDS011;7323;50.848;4.334;2023-03-23T09:26:48;5.63;;;2.57;;
14474;SDS011;7323;50.848;4.334;2023-03-23T09:29:13;7.47;;;3.60;;
14474;SDS011;7323;50.848;4.334;2023-03-23T09:31:39;5.13;;;1.90;;
14474;SDS011;7323;50.848;4.334;2023-03-23T09:34:06;4.00;;;2.10;;
14474;SDS011;7323;50.848;4.334;2023-03-23T09:36:35;5.63;;;1.87;;
14474;SDS011;7323;50.848;4.334;2023-03-23T09:39:01;4.03;;;1.77;;
14474;SDS011;7323;50.848;4.334;2023-03-23T09:41:40;6.03;;;2.20;;
14474;SDS011;7323;50.848;4.334;2023-03-23T09:49:57;4.93;;;1.60;;
14474;SDS011;7323;50.848;4.334;2023-03-23T09:55:16;6.87;;;1.90;;
14474;SDS011;7323;50.848;4.334;2023-03-23T10:00:46;6.07;;;1.73;;
14474;SDS011;7323;50.848;4.334;2023-03-23T10:03:24;4.33;;;1.73;;
14474;SDS011;7323;50.848;4.334;2023-03-23T10:05:55;3.37;;;1.70;;
14474;SDS011;7323;50.848;4.334;2023-03-23T10:08:22;3.63;;;1.50;;
14474;SDS011;7323;50.848;4.334;2023-03-23T10:16:25;5.60;;;2.03;;
14474;SDS011;7323;50.848;4.334;2023-03-23T10:18:58;8.27;;;2.27;;
14474;SDS011;7323;50.848;4.334;2023-03-23T10:21:35;3.57;;;1.60;;
14474;SDS011;7323;50.848;4.334;2023-03-23T10:24:08;4.53;;;1.80;;
14474;SDS011;7323;50.848;4.334;2023-03-23T10:29:11;3.67;;;1.77;;
14474;SDS011;7323;50.848;4.334;2023-03-23T10:37:27;4.17;;;2.00;;
14474;SDS011;7323;50.848;4.334;2023-03-23T10:40:03;7.10;;;2.27;;
14474;SDS011;7323;50.848;4.334;2023-03-23T10:42:35;5.70;;;2.40;;
14474;SDS011;7323;50.848;4.334;2023-03-23T10:45:20;4.50;;;2.03;;
14474;SDS011;7323;50.848;4.334;2023-03-23T10:47:59;3.83;;;1.90;;
14474;SDS011;7323;50.848;4.334;2023-03-23T10:50:36;8.10;;;2.50;;
14474;SDS011;7323;50.848;4.334;2023-03-23T10:53:07;4.37;;;2.10;;
14474;SDS011;7323;50.848;4.334;2023-03-23T10:55:49;6.13;;;2.77;;
14474;SDS011;7323;50.848;4.334;2023-03-23T10:58:23;5.67;;;2.47;;
14474;SDS011;7323;50.848;4.334;2023-03-23T11:01:00;7.77;;;2.23;;
14474;SDS011;7323;50.848;4.334;2023-03-23T11:06:09;5.13;;;2.50;;
14474;SDS011;7323;50.848;4.334;2023-03-23T11:09:00;8.33;;;2.60;;
14474;SDS011;7323;50.848;4.334;2023-03-23T11:11:27;6.87;;;3.07;;
14474;SDS011;7323;50.848;4.334;2023-03-23T11:16:33;7.50;;;3.03;;
14474;SDS011;7323;50.848;4.334;2023-03-23T11:19:23;7.77;;;2.57;;
14474;SDS011;7323;50.848;4.334;2023-03-23T11:21:51;8.27;;;2.70;;
14474;SDS011;7323;50.848;4.334;2023-03-23T11:24:24;7.67;;;2.83;;
14474;SDS011;7323;50.848;4.334;2023-03-23T11:26:51;5.40;;;2.60;;
14474;SDS011;7323;50.848;4.334;2023-03-23T11:29:22;6.90;;;2.60;;
14474;SDS011;7323;50.848;4.334;2023-03-23T11:31:51;7.50;;;2.57;;
14474;SDS011;7323;50.848;4.334;2023-03-23T11:34:25;6.53;;;2.50;;
14474;SDS011;7323;50.848;4.334;2023-03-23T11:38:01;6.17;;;2.37;;
14474;SDS011;7323;50.848;4.334;2023-03-23T11:45:18;8.50;;;2.23;;
14474;SDS011;7323;50.848;4.334;2023-03-23T11:47:59;5.83;;;2.23;;
14474;SDS011;7323;50.848;4.334;2023-03-23T11:50:37;5.93;;;2.00;;
14474;SDS011;7323;50.848;4.334;2023-03-23T11:53:15;9.10;;;2.70;;
14474;SDS011;7323;50.848;4.334;2023-03-23T11:58:16;5.17;;;2.10;;
14474;SDS011;7323;50.848;4.334;2023-03-23T12:01:00;6.37;;;2.10;;
14474;SDS011;7323;50.848;4.334;2023-03-23T12:03:58;5.20;;;1.90;;
14474;SDS011;7323;50.848;4.334;2023-03-23T12:06:38;6.23;;;2.10;;
14474;SDS011;7323;50.848;4.334;2023-03-23T12:12:22;6.67;;;2.10;;
14474;SDS011;7323;50.848;4.334;2023-03-23T12:15:18;3.57;;;1.63;;
14474;SDS011;7323;50.848;4.334;2023-03-23T12:20:39;7.60;;;2.20;;
14474;SDS011;7323;50.848;4.334;2023-03-23T12:23:25;5.63;;;2.07;;
14474;SDS011;7323;50.848;4.334;2023-03-23T12:26:12;8.40;;;2.13;;
14474;SDS011;7323;50.848;4.334;2023-03-23T12:28:56;5.87;;;2.30;;
14474;SDS011;7323;50.848;4.334;2023-03-23T12:31:49;6.00;;;2.10;;
14474;SDS011;7323;50.848;4.334;2023-03-23T12:37:13;6.13;;;2.20;;
14474;SDS011;7323;50.848;4.334;2023-03-23T12:39:50;7.33;;;2.50;;
14474;SDS011;7323;50.848;4.334;2023-03-23T12:48:24;6.67;;;2.43;;
14474;SDS011;7323;50.848;4.334;2023-03-23T12:53:53;7.97;;;2.77;;
14474;SDS011;7323;50.848;4.334;2023-03-23T12:56:52;9.07;;;2.60;;
14474;SDS011;7323;50.848;4.334;2023-03-23T12:59:39;9.40;;;2.80;;
14474;SDS011;7323;50.848;4.334;2023-03-23T13:02:28;6.53;;;2.23;;
14474;SDS011;7323;50.848;4.334;2023-03-23T13:05:03;7.47;;;2.40;;
14474;SDS011;7323;50.848;4.334;2023-03-23T13:07:47;4.87;;;2.13;;
14474;SDS011;7323;50.848;4.334;2023-03-23T13:10:37;9.30;;;2.30;;
14474;SDS011;7323;50.848;4.334;2023-03-23T13:13:12;7.30;;;2.47;;
14474;SDS011;7323;50.848;4.334;2023-03-23T13:18:41;8.00;;;2.77;;
14474;SDS011;7323;50.848;4.334;2023-03-23T13:21:24;8.30;;;2.53;;
14474;SDS011;7323;50.848;4.334;2023-03-23T13:24:04;5.87;;;2.23;;
14474;SDS011;7323;50.848;4.334;2023-03-23T13:26:42;8.13;;;2.57;;
14474;SDS011;7323;50.848;4.334;2023-03-23T13:29:12;6.37;;;2.17;;
14474;SDS011;7323;50.848;4.334;2023-03-23T13:31:39;7.97;;;2.37;;
14474;SDS011;7323;50.848;4.334;2023-03-23T13:34:16;9.50;;;2.33;;
14474;SDS011;7323;50.848;4.334;2023-03-23T13:36:57;8.30;;;2.90;;
14474;SDS011;7323;50.848;4.334;2023-03-23T13:39:36;7.17;;;2.30;;
14474;SDS011;7323;50.848;4.334;2023-03-23T13:42:19;7.03;;;2.50;;
14474;SDS011;7323;50.848;4.334;2023-03-23T13:49:56;8.00;;;2.30;;
14474;SDS011;7323;50.848;4.334;2023-03-23T13:57:54;7.10;;;2.27;;
14474;SDS011;7323;50.848;4.334;2023-03-23T14:00:36;8.60;;;2.03;;
14474;SDS011;7323;50.848;4.334;2023-03-23T14:05:51;7.10;;;2.43;;
14474;SDS011;7323;50.848;4.334;2023-03-23T14:10:56;6.93;;;2.53;;
14474;SDS011;7323;50.848;4.334;2023-03-23T14:13:41;9.63;;;2.80;;
14474;SDS011;7323;50.848;4.334;2023-03-23T14:16:22;8.33;;;3.30;;
14474;SDS011;7323;50.848;4.334;2023-03-23T14:18:53;7.97;;;2.13;;
14474;SDS011;7323;50.848;4.334;2023-03-23T14:21:36;8.43;;;2.43;;
14474;SDS011;7323;50.848;4.334;2023-03-23T14:24:26;7.73;;;2.57;;
14474;SDS011;7323;50.848;4.334;2023-03-23T14:27:08;7.83;;;2.50;;
14474;SDS011;7323;50.848;4.334;2023-03-23T14:29:35;8.83;;;2.50;;
14474;SDS011;7323;50.848;4.334;2023-03-23T14:32:01;7.27;;;2.43;;
14474;SDS011;7323;50.848;4.334;2023-03-23T14:34:28;10.57;;;2.83;;
14474;SDS011;7323;50.848;4.334;2023-03-23T14:36:56;8.67;;;2.70;;
14474;SDS011;7323;50.848;4.334;2023-03-23T14:41:51;6.73;;;2.50;;
14474;SDS011;7323;50.848;4.334;2023-03-23T14:44:22;12.03;;;2.93;;
14474;SDS011;7323;50.848;4.334;2023-03-23T14:46:52;6.73;;;2.20;;
14474;SDS011;7323;50.848;4.334;2023-03-23T14:49:23;6.47;;;2.13;;
14474;SDS011;7323;50.848;4.334;2023-03-23T14:51:56;7.67;;;2.33;;
14474;SDS011;7323;50.848;4.334;2023-03-23T14:54:27;5.50;;;2.10;;
14474;SDS011;7323;50.848;4.334;2023-03-23T14:56:54;7.37;;;2.07;;
14474;SDS011;7323;50.848;4.334;2023-03-23T14:59:20;6.67;;;2.20;;
14474;SDS011;7323;50.848;4.334;2023-03-23T15:01:47;7.60;;;2.40;;
14474;SDS011;7323;50.848;4.334;2023-03-23T15:04:16;8.40;;;2.30;;
14474;SDS011;7323;50.848;4.334;2023-03-23T15:06:50;8.60;;;2.50;;
14474;SDS011;7323;50.848;4.334;2023-03-23T15:09:21;7.43;;;2.20;;
14474;SDS011;7323;50.848;4.334;2023-03-23T15:11:52;11.03;;;2.77;;
14474;SDS011;7323;50.848;4.334;2023-03-23T15:14:22;8.03;;;2.77;;
14474;SDS011;7323;50.848;4.334;2023-03-23T15:16:56;7.53;;;2.60;;
14474;SDS011;7323;50.848;4.334;2023-03-23T15:19:25;6.73;;;2.50;;
14474;SDS011;7323;50.848;4.334;2023-03-23T15:24:50;12.17;;;3.80;;
14474;SDS011;7323;50.848;4.334;2023-03-23T15:27:26;11.17;;;4.83;;
14474;SDS011;7323;50.848;4.334;2023-03-23T15:30:27;10.93;;;5.33;;
14474;SDS011;7323;50.848;4.334;2023-03-23T15:33:02;9.73;;;5.10;;
14474;SDS011;7323;50.848;4.334;2023-03-23T15:35:36;9.17;;;5.10;;
14474;SDS011;7323;50.848;4.334;2023-03-23T15:38:05;9.77;;;4.60;;
14474;SDS011;7323;50.848;4.334;2023-03-23T15:40:40;11.60;;;4.57;;
14474;SDS011;7323;50.848;4.334;2023-03-23T15:45:54;8.40;;;3.43;;
14474;SDS011;7323;50.848;4.334;2023-03-23T15:49:08;12.67;;;3.97;;
14474;SDS011;7323;50.848;4.334;2023-03-23T15:51:37;9.40;;;4.00;;
14474;SDS011;7323;50.848;4.334;2023-03-23T15:54:05;10.13;;;3.70;;
14474;SDS011;7323;50.848;4.334;2023-03-23T15:56:40;10.83;;;3.70;;
14474;SDS011;7323;50.848;4.334;2023-03-23T15:59:07;9.03;;;3.23;;
14474;SDS011;7323;50.848;4.334;2023-03-23T16:01:33;11.70;;;3.63;;
14474;SDS011;7323;50.848;4.334;2023-03-23T16:04:03;9.23;;;2.90;;
14474;SDS011;7323;50.848;4.334;2023-03-23T16:06:34;7.87;;;2.57;;
14474;SDS011;7323;50.848;4.334;2023-03-23T16:09:01;7.97;;;2.57;;
14474;SDS011;7323;50.848;4.334;2023-03-23T16:11:29;7.40;;;2.40;;
14474;SDS011;7323;50.848;4.334;2023-03-23T16:13:56;6.90;;;1.97;;
14474;SDS011;7323;50.848;4.334;2023-03-23T16:16:33;7.07;;;2.50;;
14474;SDS011;7323;50.848;4.334;2023-03-23T16:19:01;8.40;;;2.80;;
14474;SDS011;7323;50.848;4.334;2023-03-23T16:21:28;6.53;;;2.10;;
14474;SDS011;7323;50.848;4.334;2023-03-23T16:23:53;9.40;;;2.50;;
14474;SDS011;7323;50.848;4.334;2023-03-23T16:26:20;10.30;;;2.47;;
14474;SDS011;7323;50.848;4.334;2023-03-23T16:28:46;7.27;;;2.53;;
14474;SDS011;7323;50.848;4.334;2023-03-23T16:31:11;8.37;;;2.67;;
14474;SDS011;7323;50.848;4.334;2023-03-23T16:33:38;14.13;;;2.63;;
14474;SDS011;7323;50.848;4.334;2023-03-23T16:36:04;8.27;;;3.73;;
14474;SDS011;7323;50.848;4.334;2023-03-23T16:38:30;9.50;;;3.97;;
14474;SDS011;7323;50.848;4.334;2023-03-23T16:40:56;8.87;;;3.80;;
14474;SDS011;7323;50.848;4.334;2023-03-23T16:43:22;8.80;;;3.87;;
14474;SDS011;7323;50.848;4.334;2023-03-23T16:45:48;9.60;;;4.40;;
14474;SDS011;7323;50.848;4.334;2023-03-23T16:48:15;8.77;;;3.97;;
14474;SDS011;7323;50.848;4.334;2023-03-23T16:50:44;11.03;;;4.03;;
14474;SDS011;7323;50.848;4.334;2023-03-23T16:53:11;10.13;;;3.73;;
14474;SDS011;7323;50.848;4.334;2023-03-23T16:55:37;7.20;;;3.23;;
14474;SDS011;7323;50.848;4.334;2023-03-23T16:58:15;9.43;;;3.20;;
14474;SDS011;7323;50.848;4.334;2023-03-23T17:01:00;10.67;;;3.70;;
14474;SDS011;7323;50.848;4.334;2023-03-23T17:03:26;12.70;;;3.37;;
14474;SDS011;7323;50.848;4.334;2023-03-23T17:05:52;12.27;;;3.67;;
14474;SDS011;7323;50.848;4.334;2023-03-23T17:08:18;10.50;;;3.07;;
14474;SDS011;7323;50.848;4.334;2023-03-23T17:10:45;9.17;;;3.20;;
14474;SDS011;7323;50.848;4.334;2023-03-23T17:13:15;10.23;;;3.70;;
14474;SDS011;7323;50.848;4.334;2023-03-23T17:15:43;10.30;;;3.93;;
14474;SDS011;7323;50.848;4.334;2023-03-23T17:18:09;12.83;;;4.40;;